createdAt,value
2018-10-11T00:01:07.655Z,10.37
2018-10-11T00:03:36.782Z,10.32
2018-10-11T00:06:05.947Z,10.25
2018-10-11T00:08:34.969Z,10.16
2018-10-11T00:11:04.089Z,10.10
2018-10-11T00:13:33.592Z,10.04
2018-10-11T00:16:03.109Z,10.05
2018-10-11T00:18:32.420Z,10.12
2018-10-11T00:21:01.552Z,10.14
2018-10-11T00:23:30.492Z,10.09
2018-10-11T00:25:59.577Z,10.02
2018-10-11T00:28:28.920Z,9.94
2018-10-11T00:30:58.028Z,9.86
2018-10-11T00:33:27.950Z,9.82
2018-10-11T00:35:57.099Z,9.76
2018-10-11T00:38:26.133Z,9.76
2018-10-11T00:40:55.721Z,9.73
2018-10-11T00:43:25.116Z,9.78
2018-10-11T00:45:54.700Z,9.86
2018-10-11T00:48:24.530Z,9.91
2018-10-11T00:50:53.729Z,9.95
2018-10-11T00:53:23.846Z,9.94
2018-10-11T00:55:53.304Z,9.97
2018-10-11T00:58:22.453Z,9.95
2018-10-11T01:00:51.854Z,9.95
2018-10-11T01:03:21.036Z,9.93
2018-10-11T01:05:50.076Z,9.99
2018-10-11T01:08:18.957Z,9.98
2018-10-11T01:10:47.839Z,9.94
2018-10-11T01:13:17.957Z,9.85
2018-10-11T01:15:46.946Z,9.80
2018-10-11T01:18:16.192Z,9.79
2018-10-11T01:20:45.223Z,9.81
2018-10-11T01:23:14.265Z,9.84
2018-10-11T01:25:43.643Z,9.89
2018-10-11T01:28:12.703Z,9.94
2018-10-11T01:30:47.219Z,9.90
2018-10-11T01:33:18.714Z,9.79
2018-10-11T01:35:47.917Z,9.74
2018-10-11T01:38:16.993Z,9.66
2018-10-11T01:40:45.881Z,9.56
2018-10-11T01:43:15.368Z,9.48
2018-10-11T01:45:44.596Z,9.42
2018-10-11T01:48:13.547Z,9.43
2018-10-11T01:50:42.916Z,9.47
2018-10-11T01:53:12.365Z,9.57
2018-10-11T01:55:41.381Z,9.65
2018-10-11T01:58:10.367Z,9.68
2018-10-11T02:00:39.594Z,9.73
2018-10-11T02:03:09.991Z,9.78
2018-10-11T02:05:38.918Z,9.75
2018-10-11T02:08:07.927Z,9.68
2018-10-11T02:10:36.792Z,9.66
2018-10-11T02:13:05.627Z,9.66
2018-10-11T02:15:34.953Z,9.66
2018-10-11T02:18:04.208Z,9.58
2018-10-11T02:20:33.506Z,9.53
2018-10-11T02:23:02.805Z,9.48
2018-10-11T02:25:31.793Z,9.48
2018-10-11T02:28:01.071Z,9.48
2018-10-11T02:30:30.240Z,9.54
2018-10-11T02:32:59.289Z,9.61
2018-10-11T02:35:28.656Z,9.60
2018-10-11T02:37:57.715Z,9.65
2018-10-11T02:40:26.534Z,9.64
2018-10-11T02:42:55.615Z,9.69
2018-10-11T02:45:24.554Z,9.74
2018-10-11T02:47:53.840Z,9.73
2018-10-11T02:50:22.838Z,9.77
2018-10-11T02:52:51.892Z,9.81
2018-10-11T02:55:24.238Z,9.87
2018-10-11T02:58:04.119Z,9.88
2018-10-11T03:00:35.192Z,9.87
2018-10-11T03:03:08.949Z,10.00
2018-10-11T03:05:40.742Z,10.13
2018-10-11T03:08:13.151Z,10.06
2018-10-11T03:10:42.131Z,9.89
2018-10-11T03:13:13.071Z,9.76
2018-10-11T03:15:42.731Z,9.70
2018-10-11T03:18:12.805Z,9.69
2018-10-11T03:20:43.020Z,9.64
2018-10-11T03:23:12.548Z,9.52
2018-10-11T03:25:42.751Z,9.38
2018-10-11T03:28:12.953Z,9.26
2018-10-11T03:30:42.134Z,9.39
2018-10-11T03:33:12.245Z,9.47
2018-10-11T03:35:42.313Z,9.39
2018-10-11T03:38:11.576Z,9.30
2018-10-11T03:40:40.504Z,9.15
2018-10-11T03:43:09.838Z,9.05
2018-10-11T03:45:38.845Z,9.05
2018-10-11T03:48:08.204Z,9.00
2018-10-11T03:50:37.529Z,9.01
2018-10-11T03:53:06.856Z,9.01
2018-10-11T03:55:36.057Z,8.91
2018-10-11T03:58:04.978Z,8.85
2018-10-11T04:00:34.451Z,8.87
2018-10-11T04:03:03.727Z,8.82
2018-10-11T04:05:32.869Z,8.72
2018-10-11T04:08:01.878Z,8.71
2018-10-11T04:10:31.399Z,8.69
2018-10-11T04:13:00.863Z,8.68
2018-10-11T04:15:30.396Z,8.68
2018-10-11T04:17:59.914Z,8.68
2018-10-11T04:20:28.976Z,8.68
2018-10-11T04:22:58.151Z,8.69
2018-10-11T04:25:27.699Z,8.79
2018-10-11T04:27:57.308Z,8.83
2018-10-11T04:30:26.743Z,8.81
2018-10-11T04:32:56.744Z,8.82
2018-10-11T04:35:26.562Z,8.84
2018-10-11T04:37:55.710Z,8.88
2018-10-11T04:40:25.237Z,8.91
2018-10-11T04:42:54.763Z,8.90
2018-10-11T04:45:24.308Z,8.88
2018-10-11T04:47:54.122Z,8.88
2018-10-11T04:50:23.118Z,8.91
2018-10-11T04:52:52.072Z,8.96
2018-10-11T04:55:21.484Z,9.04
2018-10-11T04:57:50.954Z,9.16
2018-10-11T05:00:20.073Z,9.19
2018-10-11T05:02:49.437Z,9.18
2018-10-11T05:05:18.425Z,9.14
2018-10-11T05:07:47.734Z,9.08
2018-10-11T05:10:16.913Z,9.01
2018-10-11T05:12:46.424Z,8.92
2018-10-11T05:15:15.820Z,8.88
2018-10-11T05:17:45.939Z,8.84
2018-10-11T05:20:15.410Z,8.82
2018-10-11T05:22:44.643Z,8.77
2018-10-11T05:25:13.889Z,8.78
2018-10-11T05:27:43.033Z,8.84
2018-10-11T05:30:12.163Z,8.93
2018-10-11T05:32:41.384Z,8.93
2018-10-11T05:35:10.926Z,8.92
2018-10-11T05:37:40.318Z,8.89
2018-10-11T05:40:09.495Z,8.85
2018-10-11T05:42:39.008Z,8.85
2018-10-11T05:45:15.601Z,8.92
2018-10-11T05:47:45.087Z,8.94
2018-10-11T05:50:14.524Z,8.95
2018-10-11T05:52:44.503Z,8.95
2018-10-11T05:55:14.339Z,8.92
2018-10-11T05:57:43.989Z,8.99
2018-10-11T06:00:13.589Z,9.01
2018-10-11T06:03:16.502Z,8.99
2018-10-11T06:05:45.913Z,8.95
2018-10-11T06:08:14.969Z,8.94
2018-10-11T06:10:45.445Z,8.95
2018-10-11T06:13:15.292Z,8.99
2018-10-11T06:15:44.673Z,9.03
2018-10-11T06:18:14.208Z,9.11
2018-10-11T06:20:43.396Z,9.18
2018-10-11T06:23:12.533Z,9.22
2018-10-11T06:25:41.468Z,9.30
2018-10-11T06:28:10.947Z,9.41
2018-10-11T06:30:40.370Z,9.50
2018-10-11T06:33:09.275Z,9.57
2018-10-11T06:35:39.234Z,9.64
2018-10-11T06:38:08.629Z,9.71
2018-10-11T06:40:38.188Z,9.79
2018-10-11T06:43:07.634Z,9.85
2018-10-11T06:45:37.110Z,9.96
2018-10-11T06:48:08.064Z,10.10
2018-10-11T06:50:37.244Z,10.29
2018-10-11T06:53:06.527Z,10.45
2018-10-11T06:55:42.303Z,10.58
2018-10-11T06:58:11.523Z,10.69
2018-10-11T07:00:40.636Z,10.79
2018-10-11T07:03:10.046Z,10.92
2018-10-11T07:05:46.924Z,11.02
2018-10-11T07:08:16.120Z,11.12
2018-10-11T07:10:45.351Z,11.22
2018-10-11T07:13:14.407Z,11.32
2018-10-11T07:15:50.997Z,11.40
2018-10-11T07:18:20.068Z,11.46
2018-10-11T07:20:49.186Z,11.53
2018-10-11T07:23:18.356Z,11.60
2018-10-11T07:25:53.311Z,11.67
2018-10-11T07:28:22.818Z,11.78
2018-10-11T07:30:51.869Z,11.85
2018-10-11T07:33:21.028Z,11.91
2018-10-11T07:35:50.117Z,11.98
2018-10-11T07:38:19.633Z,12.04
2018-10-11T07:40:48.810Z,12.16
2018-10-11T07:43:17.861Z,12.26
2018-10-11T07:45:50.406Z,12.34
2018-10-11T07:48:20.637Z,12.45
2018-10-11T07:50:49.873Z,12.59
2018-10-11T07:53:18.871Z,12.71
2018-10-11T07:55:48.317Z,12.80
2018-10-11T07:58:17.335Z,12.87
2018-10-11T08:00:46.487Z,12.95
2018-10-11T08:03:15.507Z,12.99
2018-10-11T08:05:53.698Z,13.04
2018-10-11T08:08:23.312Z,13.11
2018-10-11T08:10:52.886Z,13.19
2018-10-11T08:13:22.148Z,13.27
2018-10-11T08:15:52.481Z,13.32
2018-10-11T08:18:21.440Z,13.38
2018-10-11T08:20:50.491Z,13.47
2018-10-11T08:23:19.453Z,13.55
2018-10-11T08:25:48.915Z,13.65
2018-10-11T08:28:22.476Z,13.69
2018-10-11T08:30:51.487Z,13.76
2018-10-11T08:33:20.633Z,13.84
2018-10-11T08:35:55.296Z,13.94
2018-10-11T08:38:24.437Z,14.08
2018-10-11T08:40:53.478Z,14.28
2018-10-11T08:43:22.956Z,14.48
2018-10-11T08:46:08.977Z,14.69
2018-10-11T08:48:38.076Z,14.88
2018-10-11T08:51:07.040Z,14.97
2018-10-11T08:53:36.518Z,15.12
2018-10-11T08:56:13.670Z,15.26
2018-10-11T08:58:42.877Z,15.37
2018-10-11T09:01:13.031Z,15.54
2018-10-11T09:03:42.489Z,15.70
2018-10-11T09:06:12.558Z,15.86
2018-10-11T09:08:41.760Z,16.03
2018-10-11T09:11:10.785Z,16.10
2018-10-11T09:13:40.616Z,16.25
2018-10-11T09:16:18.301Z,16.42
2018-10-11T09:18:47.431Z,16.55
2018-10-11T09:21:16.528Z,16.68
2018-10-11T09:23:45.628Z,16.80
2018-10-11T09:26:15.902Z,16.91
2018-10-11T09:28:44.948Z,17.01
2018-10-11T09:31:14.262Z,17.09
2018-10-11T09:33:43.869Z,17.17
2018-10-11T09:36:13.112Z,17.25
2018-10-11T09:38:42.558Z,17.32
2018-10-11T09:41:11.628Z,17.46
2018-10-11T09:43:40.766Z,17.57
2018-10-11T09:46:11.002Z,17.67
2018-10-11T09:48:40.103Z,17.77
2018-10-11T09:51:10.456Z,18.03
2018-10-11T09:53:39.956Z,18.17
2018-10-11T09:56:09.136Z,18.32
2018-10-11T09:58:38.216Z,18.37
2018-10-11T10:01:12.290Z,18.59
2018-10-11T10:03:41.318Z,18.77
2018-10-11T10:06:10.457Z,18.85
2018-10-11T10:08:39.518Z,19.02
2018-10-11T10:11:08.620Z,19.08
2018-10-11T10:13:37.780Z,19.11
2018-10-11T10:16:07.704Z,19.12
2018-10-11T10:18:36.809Z,19.21
2018-10-11T10:21:05.857Z,19.25
2018-10-11T10:23:34.849Z,19.38
2018-10-11T10:26:04.910Z,19.50
2018-10-11T10:28:33.879Z,19.62
2018-10-11T10:31:02.932Z,19.70
2018-10-11T10:33:32.320Z,19.83
2018-10-11T10:36:01.539Z,19.96
2018-10-11T10:38:30.699Z,20.13
2018-10-11T10:41:00.449Z,20.28
2018-10-11T10:43:29.890Z,20.40
2018-10-11T10:45:59.381Z,20.51
2018-10-11T10:48:28.401Z,20.59
2018-10-11T10:50:57.434Z,20.68
2018-10-11T10:53:26.537Z,20.73
2018-10-11T10:55:56.272Z,20.83
2018-10-11T10:58:25.336Z,20.85
2018-10-11T11:00:54.289Z,20.89
2018-10-11T11:03:23.272Z,20.97
2018-10-11T11:05:52.254Z,21.15
2018-10-11T11:08:22.410Z,21.26
2018-10-11T11:10:51.394Z,21.37
2018-10-11T11:13:22.618Z,21.54
2018-10-11T11:15:52.297Z,21.66
2018-10-11T11:18:24.746Z,21.69
2018-10-11T11:20:53.713Z,21.76
2018-10-11T11:23:22.866Z,21.78
2018-10-11T11:25:51.785Z,21.88
2018-10-11T11:28:21.971Z,22.01
2018-10-11T11:30:51.291Z,22.04
2018-10-11T11:33:20.349Z,22.09
2018-10-11T11:35:49.464Z,22.21
2018-10-11T11:38:20.533Z,22.37
2018-10-11T11:40:49.653Z,22.42
2018-10-11T11:43:18.737Z,22.55
2018-10-11T11:45:47.920Z,22.67
2018-10-11T11:48:18.142Z,22.76
2018-10-11T11:50:47.215Z,22.89
2018-10-11T11:53:16.181Z,22.93
2018-10-11T11:55:44.976Z,22.97
2018-10-11T11:58:14.862Z,23.08
2018-10-11T12:00:43.791Z,23.23
2018-10-11T12:03:12.580Z,23.19
2018-10-11T12:05:41.569Z,23.09
2018-10-11T12:08:11.312Z,23.08
2018-10-11T12:10:40.070Z,22.99
2018-10-11T12:13:12.860Z,23.02
2018-10-11T12:15:43.714Z,23.20
2018-10-11T12:18:28.133Z,23.32
2018-10-11T12:20:57.039Z,23.28
2018-10-11T12:23:25.973Z,23.40
2018-10-11T12:25:54.815Z,23.54
2018-10-11T12:28:33.463Z,23.71
2018-10-11T12:31:02.194Z,23.93
2018-10-11T12:33:31.111Z,24.15
2018-10-11T12:35:59.994Z,24.26
2018-10-11T12:38:30.029Z,24.50
2018-10-11T12:40:58.816Z,24.62
2018-10-11T12:43:27.652Z,24.69
2018-10-11T12:45:56.434Z,24.78
2018-10-11T12:48:33.565Z,24.76
2018-10-11T12:51:02.671Z,24.80
2018-10-11T12:53:31.483Z,24.71
2018-10-11T12:56:00.360Z,24.93
2018-10-11T12:58:30.207Z,25.12
2018-10-11T13:00:59.090Z,25.18
2018-10-11T13:03:28.656Z,25.22
2018-10-11T13:05:59.348Z,25.29
2018-10-11T13:08:32.968Z,25.37
2018-10-11T13:11:04.883Z,25.53
2018-10-11T13:13:37.228Z,25.76
2018-10-11T13:16:07.012Z,25.70
2018-10-11T13:18:36.852Z,25.48
2018-10-11T13:21:05.706Z,25.31
2018-10-11T13:23:35.364Z,25.29
2018-10-11T13:26:04.422Z,26.23
2018-10-11T13:28:34.229Z,28.41
2018-10-11T13:31:05.580Z,30.31
2018-10-11T13:33:37.957Z,31.24
2018-10-11T13:36:10.791Z,31.26
2018-10-11T13:38:40.704Z,31.50
2018-10-11T13:41:11.135Z,32.06
2018-10-11T13:43:39.858Z,33.37
2018-10-11T13:46:08.815Z,33.09
2018-10-11T13:48:37.539Z,32.52
2018-10-11T13:51:07.093Z,32.20
2018-10-11T13:53:36.139Z,32.22
2018-10-11T13:56:05.433Z,33.50
2018-10-11T13:58:35.986Z,34.58
2018-10-11T14:01:04.924Z,34.30
2018-10-11T14:03:33.789Z,34.39
2018-10-11T14:06:03.012Z,35.62
2018-10-11T14:08:32.984Z,36.83
2018-10-11T14:11:02.781Z,38.14
2018-10-11T14:13:31.602Z,39.15
2018-10-11T14:16:00.415Z,39.27
2018-10-11T14:18:31.392Z,39.35
2018-10-11T14:21:00.515Z,39.45
2018-10-11T14:23:29.248Z,39.38
2018-10-11T14:25:58.003Z,39.29
2018-10-11T14:28:41.492Z,38.87
2018-10-11T14:31:10.245Z,37.89
2018-10-11T14:33:39.337Z,38.04
2018-10-11T14:36:08.251Z,37.97
2018-10-11T14:38:37.227Z,37.83
2018-10-11T14:41:06.039Z,37.95
2018-10-11T14:43:34.921Z,37.52
2018-10-11T14:46:03.600Z,37.12
2018-10-11T14:48:45.776Z,36.94
2018-10-11T14:51:14.626Z,37.28
2018-10-11T14:53:43.470Z,36.83
2018-10-11T14:56:12.355Z,36.05
2018-10-11T14:58:44.694Z,35.77
2018-10-11T15:01:13.759Z,36.01
2018-10-11T15:03:42.976Z,36.45
2018-10-11T15:06:11.727Z,36.87
2018-10-11T15:08:53.749Z,37.21
2018-10-11T15:11:22.528Z,36.89
2018-10-11T15:13:51.211Z,35.69
2018-10-11T15:16:19.998Z,35.25
2018-10-11T15:18:54.372Z,35.05
2018-10-11T15:21:23.073Z,35.14
2018-10-11T15:23:51.869Z,34.13
2018-10-11T15:26:21.153Z,33.90
2018-10-11T15:28:50.875Z,33.67
2018-10-11T15:31:20.007Z,32.39
2018-10-11T15:33:48.657Z,30.44
2018-10-11T15:36:17.379Z,28.53
2018-10-11T15:38:46.116Z,26.87
2018-10-11T15:41:14.964Z,25.59
2018-10-11T15:43:43.718Z,24.58
2018-10-11T15:46:12.356Z,23.99
2018-10-11T15:48:41.139Z,23.79
2018-10-11T15:51:09.885Z,23.74
2018-10-11T15:53:38.673Z,23.60
2018-10-11T15:56:09.903Z,23.15
2018-10-11T15:58:38.770Z,22.61
2018-10-11T16:01:07.552Z,22.10
2018-10-11T16:03:36.444Z,21.60
2018-10-11T16:06:05.861Z,21.18
2018-10-11T16:08:34.738Z,20.80
2018-10-11T16:11:10.827Z,20.49
2018-10-11T16:13:39.725Z,20.22
2018-10-11T16:16:08.815Z,20.05
2018-10-11T16:18:37.705Z,19.85
2018-10-11T16:21:13.950Z,19.66
2018-10-11T16:23:42.681Z,19.47
2018-10-11T16:26:11.542Z,19.35
2018-10-11T16:28:40.442Z,19.27
2018-10-11T16:31:16.780Z,19.18
2018-10-11T16:33:45.714Z,19.11
2018-10-11T16:36:15.410Z,19.00
2018-10-11T16:38:44.206Z,18.92
2018-10-11T16:41:23.936Z,18.86
2018-10-11T16:43:53.069Z,18.79
2018-10-11T16:46:21.836Z,18.66
2018-10-11T16:48:50.577Z,18.58
2018-10-11T16:51:19.467Z,18.49
2018-10-11T16:53:48.260Z,18.42
2018-10-11T16:56:17.154Z,18.38
2018-10-11T16:58:46.747Z,18.35
2018-10-11T17:01:15.552Z,18.31
2018-10-11T17:03:44.358Z,18.25
2018-10-11T17:06:13.278Z,18.22
2018-10-11T17:08:42.131Z,18.22
2018-10-11T17:11:10.867Z,18.23
2018-10-11T17:13:39.730Z,18.28
2018-10-11T17:16:08.564Z,18.29
2018-10-11T17:18:37.463Z,18.33
2018-10-11T17:21:06.362Z,18.34
2018-10-11T17:23:35.100Z,18.32
2018-10-11T17:26:03.924Z,18.39
2018-10-11T17:28:32.800Z,18.40
2018-10-11T17:31:01.527Z,18.40
2018-10-11T17:33:30.417Z,18.37
2018-10-11T17:35:59.163Z,18.42
2018-10-11T17:38:28.062Z,18.44
2018-10-11T17:40:56.835Z,18.43
2018-10-11T17:43:25.636Z,18.45
2018-10-11T17:45:54.463Z,18.45
2018-10-11T17:48:23.308Z,18.42
2018-10-11T17:50:55.239Z,18.37
2018-10-11T17:53:24.062Z,18.32
2018-10-11T17:55:53.229Z,18.27
2018-10-11T17:58:22.072Z,18.21
2018-10-11T18:00:50.802Z,18.18
2018-10-11T18:03:19.575Z,18.16
2018-10-11T18:05:49.031Z,18.09
2018-10-11T18:08:17.802Z,18.03
2018-10-11T18:10:48.799Z,17.97
2018-10-11T18:13:17.846Z,17.89
2018-10-11T18:15:46.563Z,17.86
2018-10-11T18:18:15.591Z,17.86
2018-10-11T18:20:45.071Z,17.85
2018-10-11T18:23:13.892Z,17.84
2018-10-11T18:25:42.947Z,17.79
2018-10-11T18:28:12.105Z,17.74
2018-10-11T18:30:41.350Z,17.70
2018-10-11T18:33:10.374Z,17.69
2018-10-11T18:35:39.777Z,17.66
2018-10-11T18:38:08.850Z,17.60
2018-10-11T18:40:37.812Z,17.55
2018-10-11T18:43:06.903Z,17.53
2018-10-11T18:45:35.894Z,17.48
2018-10-11T18:48:04.822Z,17.41
2018-10-11T18:50:33.836Z,17.41
2018-10-11T18:53:02.624Z,17.40
2018-10-11T18:55:31.757Z,17.43
2018-10-11T18:58:00.675Z,17.44
2018-10-11T19:00:30.020Z,17.40
2018-10-11T19:02:59.131Z,17.33
2018-10-11T19:05:28.564Z,17.26
2018-10-11T19:07:57.869Z,17.21
2018-10-11T19:10:27.017Z,17.15
2018-10-11T19:12:56.164Z,17.06
2018-10-11T19:15:25.305Z,16.94
2018-10-11T19:17:54.354Z,16.77
2018-10-11T19:20:23.671Z,16.59
2018-10-11T19:22:52.958Z,16.43
2018-10-11T19:25:22.080Z,16.27
2018-10-11T19:27:51.857Z,16.10
2018-10-11T19:30:20.824Z,16.05
2018-10-11T19:32:49.750Z,15.98
2018-10-11T19:35:18.617Z,15.86
2018-10-11T19:37:47.439Z,15.72
2018-10-11T19:40:16.364Z,15.62
2018-10-11T19:42:45.118Z,15.54
2018-10-11T19:45:14.355Z,15.53
2018-10-11T19:47:43.274Z,15.47
2018-10-11T19:50:12.419Z,15.44
2018-10-11T19:52:41.552Z,15.45
2018-10-11T19:55:10.472Z,15.53
2018-10-11T19:57:39.530Z,15.60
2018-10-11T20:00:08.576Z,15.71
2018-10-11T20:02:37.445Z,15.80
2018-10-11T20:05:06.345Z,15.88
2018-10-11T20:07:36.228Z,15.93
2018-10-11T20:10:05.123Z,15.94
2018-10-11T20:12:34.029Z,15.95
2018-10-11T20:15:03.443Z,15.91
2018-10-11T20:17:32.950Z,15.83
2018-10-11T20:20:01.920Z,15.71
2018-10-11T20:22:30.891Z,15.55
2018-10-11T20:24:59.710Z,15.37
2018-10-11T20:27:28.534Z,15.24
2018-10-11T20:29:57.352Z,15.18
2018-10-11T20:32:27.145Z,15.22
2018-10-11T20:34:55.952Z,15.20
2018-10-11T20:37:24.799Z,15.18
2018-10-11T20:39:53.730Z,15.11
2018-10-11T20:42:22.554Z,15.01
2018-10-11T20:44:51.307Z,14.92
2018-10-11T20:47:20.159Z,14.81
2018-10-11T20:49:48.916Z,14.69
2018-10-11T20:52:17.825Z,14.58
2018-10-11T20:54:46.636Z,14.52
2018-10-11T20:57:15.467Z,14.49
2018-10-11T20:59:44.208Z,14.51
2018-10-11T21:02:12.998Z,14.46
2018-10-11T21:04:41.784Z,14.44
2018-10-11T21:07:10.739Z,14.36
2018-10-11T21:09:39.480Z,14.32
2018-10-11T21:12:08.378Z,14.30
2018-10-11T21:14:37.181Z,14.27
2018-10-11T21:17:06.044Z,14.30
2018-10-11T21:19:35.950Z,14.30
2018-10-11T21:22:04.772Z,14.28
2018-10-11T21:24:33.680Z,14.27
2018-10-11T21:27:02.550Z,14.21
2018-10-11T21:29:31.373Z,14.10
2018-10-11T21:32:00.243Z,14.03
2018-10-11T21:34:29.056Z,14.04
2018-10-11T21:36:57.835Z,14.04
2018-10-11T21:39:26.651Z,14.03
2018-10-11T21:41:56.985Z,14.01
2018-10-11T21:44:25.819Z,13.96
2018-10-11T21:46:54.597Z,13.94
2018-10-11T21:49:23.331Z,13.93
2018-10-11T21:51:53.182Z,13.91
2018-10-11T21:54:22.169Z,13.89
2018-10-11T21:56:51.020Z,13.82
2018-10-11T21:59:19.818Z,13.79
2018-10-11T22:01:48.533Z,13.74
2018-10-11T22:04:17.314Z,13.69
2018-10-11T22:06:46.128Z,13.66
2018-10-11T22:09:15.345Z,13.68
2018-10-11T22:11:44.169Z,13.70
2018-10-11T22:14:12.960Z,13.69
2018-10-11T22:16:42.223Z,13.71
2018-10-11T22:19:11.100Z,13.72
2018-10-11T22:21:39.855Z,13.71
2018-10-11T22:24:09.180Z,13.74
2018-10-11T22:26:38.008Z,13.74
2018-10-11T22:29:06.882Z,13.72
2018-10-11T22:31:35.717Z,13.69
2018-10-11T22:34:04.407Z,13.65
2018-10-11T22:36:33.091Z,13.63
2018-10-11T22:39:01.870Z,13.62
2018-10-11T22:41:30.851Z,13.57
2018-10-11T22:43:59.690Z,13.54
2018-10-11T22:46:28.540Z,13.49
2018-10-11T22:48:57.303Z,13.43
2018-10-11T22:51:25.978Z,13.35
2018-10-11T22:53:54.755Z,13.33
2018-10-11T22:56:23.519Z,13.29
2018-10-11T22:58:53.261Z,13.28
2018-10-11T23:01:21.938Z,13.25
2018-10-11T23:03:51.093Z,13.23
2018-10-11T23:06:19.892Z,13.22
2018-10-11T23:08:48.544Z,13.16
2018-10-11T23:11:17.277Z,13.13
2018-10-11T23:13:46.356Z,13.08
2018-10-11T23:16:15.198Z,13.05
2018-10-11T23:18:44.028Z,13.07
2018-10-11T23:21:13.270Z,13.06
2018-10-11T23:23:43.391Z,13.07
2018-10-11T23:26:12.163Z,13.05
2018-10-11T23:28:41.417Z,13.03
2018-10-11T23:31:10.592Z,13.01
2018-10-11T23:33:39.484Z,13.02
2018-10-11T23:36:08.236Z,13.01
2018-10-11T23:38:37.195Z,12.99
2018-10-11T23:41:06.352Z,12.95
2018-10-11T23:43:35.195Z,12.93
2018-10-11T23:46:04.012Z,12.96
2018-10-11T23:48:32.864Z,12.95
2018-10-11T23:51:01.646Z,12.97
2018-10-11T23:53:30.312Z,12.94
2018-10-11T23:55:59.104Z,12.88
2018-10-11T23:58:27.772Z,12.81
